• Join FlightAware (Why Join?)
  • Login
  • US Flag 
07:22AM EDT


 

Airport Tracker/Info


-or-


 

Live Flight TrackerFlight Track Log ✈ N9837L ✈ 12-Jul-2013 ✈ KIAG - KBKL

Flight Track Log - Related Links

Times and Time Zones

All times are in EDT time to prevent confusion due to time zone crossing. See the N9837L flight status page for this flight to view local times or setup timezone preferences in your user account.

Time Position Orientation Groundspeed Altitude Reporting Facility
EDT Latitude Longitude Course Direction KTS MPH feet Rate Location/Type
12:17AM 43.1167 -78.9667 129° Southeast 64 74 1,400  Level Buffalo TRACON
12:18AM 43.1167 -78.9667 129° Southeast 58 67 1,700 660 Climbing Buffalo TRACON
12:19AM 43.1000 -78.9833 216° Southwest 91 105 2,400 600 Climbing Buffalo TRACON
12:20AM 43.0833 -78.9500 124° Southeast 73 84 3,000 540 Climbing Buffalo TRACON
12:21AM 43.0667 -78.9500 180° South 86 99 3,500 480 Climbing Buffalo TRACON
12:22AM 43.0500 -78.9333 144° Southeast 85 98 4,000 480 Climbing Buffalo TRACON
12:23AM 43.0134 -79.1151 129° Southeast  Level Estimated
12:23AM 43.0167 -78.9333 180° South 85 98 4,500  Level Buffalo TRACON
12:24AM 43.0000 -78.9167 144° Southeast 83 96 5,000 480 Climbing Buffalo TRACON
12:25AM 42.9833 -78.9333 216° Southwest 89 102 5,500 480 Climbing Buffalo TRACON
12:25AM 42.9636 -78.9519 215° Southwest 91 105 5,900 300 Climbing Cleveland Center
12:26AM 42.9425 -78.9383 155° Southeast 86 99 6,100  Climbing Cleveland Center
12:27AM 42.9153 -78.9278 164° South 96 110 6,000 -60 Descending Cleveland Center
12:28AM 42.8836 -78.9114 159° South 101 116 6,000  Level Cleveland Center
12:29AM 42.8564 -78.9008 164° South 106 122 6,000  Level Cleveland Center
12:30AM 42.8292 -78.8875 160° South 106 122 6,000  Level Cleveland Center
12:31AM 42.8039 -78.8769 163° South 106 122 6,000  Level Cleveland Center
12:32AM 42.7769 -78.8833 190° South 106 122 6,000  Level Cleveland Center
12:33AM 42.7567 -78.9233 235° Southwest 114 131 6,000  Level Cleveland Center
12:34AM 42.7342 -78.9550 226° Southwest 119 137 6,000  Level Cleveland Center
12:35AM 42.7119 -78.9867 226° Southwest 119 137 6,000  Level Cleveland Center
12:36AM 42.6978 -79.0239 243° Southwest 125 144 6,000  Level Cleveland Center
12:37AM 42.6711 -79.0556 221° Southwest 125 144 6,000  Level Cleveland Center
12:38AM 42.6506 -79.0900 231° Southwest 119 137 6,000  Level Cleveland Center
12:39AM 42.6239 -79.1158 215° Southwest 119 137 6,100  Climbing Cleveland Center
12:40AM 42.6014 -79.1389 217° Southwest 119 137 6,000 -60 Descending Cleveland Center
12:41AM 42.5786 -79.1678 223° Southwest 119 137 6,000  Level Cleveland Center
12:42AM 42.5497 -79.1967 216° Southwest 119 137 6,100  Climbing Cleveland Center
12:43AM 42.5294 -79.2308 231° Southwest 119 137 6,100  Level Cleveland Center
12:44AM 42.5025 -79.2539 212° Southwest 119 137 6,100  Level Cleveland Center
12:45AM 42.4864 -79.2853 235° Southwest 119 137 6,100  Level Cleveland Center
12:46AM 42.4700 -79.3278 242° Southwest 124 143 6,100 -60 Level Cleveland Center
12:47AM 42.4497 -79.3619 231° Southwest 124 143 6,000  Descending Cleveland Center
12:48AM 42.4356 -79.4017 244° Southwest 119 137 6,100  Climbing Cleveland Center
12:49AM 42.4211 -79.4383 242° Southwest 119 137 6,100 -60 Level Cleveland Center
12:50AM 42.4028 -79.4753 236° Southwest 119 137 6,000 -60 Descending Cleveland Center
12:51AM 42.3739 -79.5011 213° Southwest 125 144 6,000  Level Cleveland Center
12:52AM 42.3511 -79.5297 223° Southwest 120 138 6,000  Level Cleveland Center
12:53AM 42.3328 -79.5636 234° Southwest 114 131 6,000  Level Cleveland Center
12:54AM 42.3206 -79.6031 247° West 120 138 6,000  Level Cleveland Center
12:55AM 42.3106 -79.6456 252° West 120 138 6,000  Level Cleveland Center
12:56AM 42.3006 -79.6878 252° West 120 138 6,000  Level Cleveland Center
12:57AM 42.2925 -79.7300 256° West 120 138 6,000  Level Cleveland Center
12:58AM 42.2739 -79.7611 231° Southwest 120 138 6,000  Level Cleveland Center
12:59AM 42.2492 -79.7894 220° Southwest 120 138 6,000  Level Cleveland Center
01:00AM 42.2306 -79.8317 239° Southwest 120 138 6,100  Climbing Cleveland Center
01:01AM 42.2142 -79.8683 239° Southwest 120 138 6,100  Level Cleveland Center
01:02AM 42.1978 -79.9050 239° Southwest 120 138 6,100  Level Cleveland Center
01:03AM 42.1811 -79.9331 231° Southwest 120 138 6,100  Level Cleveland Center
01:04AM 42.1606 -79.9697 233° Southwest 125 144 6,100  Level Cleveland Center
01:05AM 42.1378 -80.0064 230° Southwest 120 138 6,100  Level Cleveland Center
01:06AM 42.1214 -80.0372 234° Southwest 115 132 6,100 -60 Level Cleveland Center
01:07AM 42.1131 -80.0822 256° West 115 132 6,000 -60 Descending Cleveland Center
01:08AM 42.1028 -80.1186 249° West 121 139 6,000  Level Cleveland Center
01:09AM 42.0822 -80.1608 237° Southwest 121 139 6,000  Level Cleveland Center
01:10AM 42.0656 -80.1972 238° Southwest 116 133 6,000  Level Cleveland Center
01:11AM 42.0469 -80.2281 231° Southwest 122 140 6,000  Level Cleveland Center
01:12AM 42.0283 -80.2589 231° Southwest 122 140 6,100  Climbing Cleveland Center
01:13AM 42.0181 -80.2981 251° West 122 140 6,100  Level Cleveland Center
01:14AM 41.9953 -80.3344 230° Southwest 122 140 6,100  Level Cleveland Center
01:15AM 41.9744 -80.3681 230° Southwest 122 140 6,100  Level Cleveland Center
01:16AM 41.9514 -80.4044 230° Southwest 122 140 6,100  Level Cleveland Center
01:17AM 41.9286 -80.4297 220° Southwest 122 140 6,100  Level Cleveland Center
01:18AM 41.9100 -80.4717 239° Southwest 122 140 6,100  Level Cleveland Center
01:19AM 41.8933 -80.5078 238° Southwest 122 140 6,100  Level Cleveland Center
01:20AM 41.8725 -80.5442 232° Southwest 122 140 6,100  Level Cleveland Center
01:21AM 41.8558 -80.5803 238° Southwest 122 140 6,100  Level Cleveland Center
01:22AM 41.8328 -80.6139 227° Southwest 122 140 6,100 -60 Level Cleveland Center
01:23AM 41.8142 -80.6500 235° Southwest 122 140 6,000 -60 Descending Cleveland Center
01:24AM 41.7931 -80.6889 234° Southwest 122 140 6,000 -60 Level Cleveland Center
01:25AM 41.7744 -80.7250 235° Southwest 122 140 5,900  Descending Cleveland Center
01:26AM 41.7617 -80.7669 248° West 122 140 6,000 60 Climbing Cleveland Center
01:27AM 41.7533 -80.8086 255° West 122 140 6,100  Climbing Cleveland Center
01:28AM 41.7469 -80.8503 258° West 122 140 6,100 -60 Level Cleveland Center
01:29AM 41.7406 -80.8947 259° West 122 140 6,000 -60 Descending Cleveland Center
01:30AM 41.7342 -80.9392 259° West 122 140 6,000  Level Cleveland Center
01:31AM 41.7319 -80.9839 266° West 122 140 6,000 -240 Level Cleveland Center
01:32AM 41.7236 -81.0311 257° West 122 140 5,600 -480 Descending Cleveland Center
01:33AM 41.7131 -81.0728 251° West 127 146 5,100 -480 Descending Cleveland Center
01:34AM 41.7022 -81.1228 254° West 127 146 4,700 -420 Descending Cleveland Center
01:36AM 41.6894 -81.1781 253° West 113 130 4,100 -420 Descending Cleveland Center
01:37AM 41.6811 -81.2169 254° West 111 128 3,700 -420 Descending Cleveland Center
01:38AM 41.6744 -81.2586 258° West 106 122 3,300 -300 Descending Cleveland Center
01:39AM 41.6700 -81.2975 261° West 110 127 3,100 -240 Descending Cleveland Center
01:40AM 41.6636 -81.3364 258° West 114 131 2,900 -120 Descending Cleveland Center
01:41AM 41.6550 -81.3753 254° West 113 130 2,900  Level Cleveland Center
01:42AM 41.6400 -81.4222 247° West 112 129 2,900 -60 Level Cleveland Center
01:43AM 41.6211 -81.4608 237° Southwest 117 135 2,800 -240 Descending Cleveland Center
01:44AM 41.6039 -81.4994 239° Southwest 123 142 2,500 -240 Descending Cleveland Center
01:45AM 41.5850 -81.5381 237° Southwest 116 133 2,400 -120 Descending Cleveland Center
01:46AM 41.5639 -81.5739 232° Southwest 111 128 2,300 -300 Descending Cleveland Center
01:47AM 41.5508 -81.6125 246° West 115 132 1,800 -540 Descending Cleveland Center
01:48AM 41.5361 -81.6511 243° Southwest 108 124 1,300 -300 Descending Cleveland Center
01:49AM 41.5272 -81.6842 250° West 98 113 1,200  Descending Cleveland Center
01:50AM 41.5144 -81.7172 243° Southwest 100 115 1,300 60 Climbing Cleveland Center
01:52AM 41.5175 -81.6833 North  Level Estimated
01:59AM 41.5175 -81.6833 North  Level Estimated
02:00AM 41.5175 -81.6833 North  Level Estimated